sensor_id;sensor_type;location;lat;lon;timestamp;P1;durP1;ratioP1;P2;durP2;ratioP2
15254;SDS011;7730;49.610;11.136;2022-11-23T00:01:13;10.18;;;3.70;;
15254;SDS011;7730;49.610;11.136;2022-11-23T00:03:41;8.90;;;3.20;;
15254;SDS011;7730;49.610;11.136;2022-11-23T00:06:09;10.25;;;3.88;;
15254;SDS011;7730;49.610;11.136;2022-11-23T00:08:37;9.23;;;3.28;;
15254;SDS011;7730;49.610;11.136;2022-11-23T00:11:04;12.18;;;3.85;;
15254;SDS011;7730;49.610;11.136;2022-11-23T00:13:31;8.82;;;3.05;;
15254;SDS011;7730;49.610;11.136;2022-11-23T00:15:59;13.32;;;3.53;;
15254;SDS011;7730;49.610;11.136;2022-11-23T00:18:26;11.38;;;3.45;;
15254;SDS011;7730;49.610;11.136;2022-11-23T00:20:53;11.02;;;3.50;;
15254;SDS011;7730;49.610;11.136;2022-11-23T00:23:21;10.10;;;3.50;;
15254;SDS011;7730;49.610;11.136;2022-11-23T00:25:48;10.05;;;3.20;;
15254;SDS011;7730;49.610;11.136;2022-11-23T00:28:15;11.05;;;3.50;;
15254;SDS011;7730;49.610;11.136;2022-11-23T00:30:47;9.82;;;3.25;;
15254;SDS011;7730;49.610;11.136;2022-11-23T00:33:14;12.05;;;3.80;;
15254;SDS011;7730;49.610;11.136;2022-11-23T00:35:41;11.40;;;3.63;;
15254;SDS011;7730;49.610;11.136;2022-11-23T00:38:08;9.57;;;3.17;;
15254;SDS011;7730;49.610;11.136;2022-11-23T00:40:36;10.82;;;3.10;;
15254;SDS011;7730;49.610;11.136;2022-11-23T00:43:03;9.75;;;3.22;;
15254;SDS011;7730;49.610;11.136;2022-11-23T00:45:30;8.50;;;2.80;;
15254;SDS011;7730;49.610;11.136;2022-11-23T00:47:57;8.75;;;2.95;;
15254;SDS011;7730;49.610;11.136;2022-11-23T00:50:24;9.55;;;3.10;;
15254;SDS011;7730;49.610;11.136;2022-11-23T00:52:51;8.00;;;3.00;;
15254;SDS011;7730;49.610;11.136;2022-11-23T00:55:18;9.73;;;3.00;;
15254;SDS011;7730;49.610;11.136;2022-11-23T00:57:47;8.52;;;3.03;;
15254;SDS011;7730;49.610;11.136;2022-11-23T01:00:14;9.43;;;3.08;;
15254;SDS011;7730;49.610;11.136;2022-11-23T01:02:41;9.48;;;2.92;;
15254;SDS011;7730;49.610;11.136;2022-11-23T01:05:08;7.95;;;3.08;;
15254;SDS011;7730;49.610;11.136;2022-11-23T01:07:35;8.18;;;2.88;;
15254;SDS011;7730;49.610;11.136;2022-11-23T01:10:03;8.10;;;3.00;;
15254;SDS011;7730;49.610;11.136;2022-11-23T01:12:30;9.15;;;3.17;;
15254;SDS011;7730;49.610;11.136;2022-11-23T01:14:58;10.05;;;3.33;;
15254;SDS011;7730;49.610;11.136;2022-11-23T01:17:25;11.73;;;3.60;;
15254;SDS011;7730;49.610;11.136;2022-11-23T01:19:52;10.40;;;3.63;;
15254;SDS011;7730;49.610;11.136;2022-11-23T01:22:19;9.93;;;3.40;;
15254;SDS011;7730;49.610;11.136;2022-11-23T01:24:47;11.45;;;3.55;;
15254;SDS011;7730;49.610;11.136;2022-11-23T01:27:15;11.50;;;3.63;;
15254;SDS011;7730;49.610;11.136;2022-11-23T01:29:42;12.75;;;3.80;;
15254;SDS011;7730;49.610;11.136;2022-11-23T01:32:10;11.70;;;3.97;;
15254;SDS011;7730;49.610;11.136;2022-11-23T01:34:37;11.43;;;3.92;;
15254;SDS011;7730;49.610;11.136;2022-11-23T01:37:04;12.13;;;3.85;;
15254;SDS011;7730;49.610;11.136;2022-11-23T01:39:31;13.70;;;4.53;;
15254;SDS011;7730;49.610;11.136;2022-11-23T01:41:58;11.32;;;3.83;;
15254;SDS011;7730;49.610;11.136;2022-11-23T01:44:26;12.18;;;4.28;;
15254;SDS011;7730;49.610;11.136;2022-11-23T01:46:54;12.60;;;3.80;;
15254;SDS011;7730;49.610;11.136;2022-11-23T01:49:23;12.82;;;4.00;;
15254;SDS011;7730;49.610;11.136;2022-11-23T01:51:51;12.20;;;4.38;;
15254;SDS011;7730;49.610;11.136;2022-11-23T01:54:20;14.07;;;4.00;;
15254;SDS011;7730;49.610;11.136;2022-11-23T01:56:49;11.25;;;3.50;;
15254;SDS011;7730;49.610;11.136;2022-11-23T01:59:17;10.93;;;3.50;;
15254;SDS011;7730;49.610;11.136;2022-11-23T02:01:45;10.88;;;3.53;;
15254;SDS011;7730;49.610;11.136;2022-11-23T02:04:13;7.93;;;3.00;;
15254;SDS011;7730;49.610;11.136;2022-11-23T02:06:45;11.75;;;3.40;;
15254;SDS011;7730;49.610;11.136;2022-11-23T02:09:12;8.13;;;2.80;;
15254;SDS011;7730;49.610;11.136;2022-11-23T02:11:39;10.70;;;2.80;;
15254;SDS011;7730;49.610;11.136;2022-11-23T02:14:06;7.28;;;2.63;;
15254;SDS011;7730;49.610;11.136;2022-11-23T02:16:34;7.43;;;2.60;;
15254;SDS011;7730;49.610;11.136;2022-11-23T02:19:01;7.10;;;2.73;;
15254;SDS011;7730;49.610;11.136;2022-11-23T02:21:28;6.43;;;2.63;;
15254;SDS011;7730;49.610;11.136;2022-11-23T02:23:58;8.30;;;2.88;;
15254;SDS011;7730;49.610;11.136;2022-11-23T02:26:29;7.72;;;2.60;;
15254;SDS011;7730;49.610;11.136;2022-11-23T02:28:58;9.73;;;2.65;;
15254;SDS011;7730;49.610;11.136;2022-11-23T02:31:26;8.68;;;2.60;;
15254;SDS011;7730;49.610;11.136;2022-11-23T02:33:53;8.23;;;2.60;;
15254;SDS011;7730;49.610;11.136;2022-11-23T02:36:26;6.25;;;2.50;;
15254;SDS011;7730;49.610;11.136;2022-11-23T02:38:54;8.70;;;2.60;;
15254;SDS011;7730;49.610;11.136;2022-11-23T02:41:23;7.55;;;2.53;;
15254;SDS011;7730;49.610;11.136;2022-11-23T02:43:53;7.70;;;2.58;;
15254;SDS011;7730;49.610;11.136;2022-11-23T02:46:20;8.00;;;2.60;;
15254;SDS011;7730;49.610;11.136;2022-11-23T02:48:47;9.77;;;2.80;;
15254;SDS011;7730;49.610;11.136;2022-11-23T02:51:14;8.73;;;2.83;;
15254;SDS011;7730;49.610;11.136;2022-11-23T02:53:41;7.28;;;2.70;;
15254;SDS011;7730;49.610;11.136;2022-11-23T02:56:08;8.05;;;2.60;;
15254;SDS011;7730;49.610;11.136;2022-11-23T02:58:35;8.73;;;2.78;;
15254;SDS011;7730;49.610;11.136;2022-11-23T03:01:04;8.98;;;2.53;;
15254;SDS011;7730;49.610;11.136;2022-11-23T03:03:31;8.95;;;2.70;;
15254;SDS011;7730;49.610;11.136;2022-11-23T03:05:58;9.60;;;2.70;;
15254;SDS011;7730;49.610;11.136;2022-11-23T03:08:25;9.10;;;3.10;;
15254;SDS011;7730;49.610;11.136;2022-11-23T03:10:52;8.63;;;2.80;;
15254;SDS011;7730;49.610;11.136;2022-11-23T03:13:19;8.85;;;2.60;;
15254;SDS011;7730;49.610;11.136;2022-11-23T03:15:46;8.32;;;2.88;;
15254;SDS011;7730;49.610;11.136;2022-11-23T03:18:14;6.07;;;2.50;;
15254;SDS011;7730;49.610;11.136;2022-11-23T03:20:41;8.68;;;2.83;;
15254;SDS011;7730;49.610;11.136;2022-11-23T03:23:08;7.50;;;2.47;;
15254;SDS011;7730;49.610;11.136;2022-11-23T03:25:35;6.97;;;2.50;;
15254;SDS011;7730;49.610;11.136;2022-11-23T03:28:02;9.73;;;3.00;;
15254;SDS011;7730;49.610;11.136;2022-11-23T03:30:29;7.13;;;2.67;;
15254;SDS011;7730;49.610;11.136;2022-11-23T03:32:57;7.77;;;2.50;;
15254;SDS011;7730;49.610;11.136;2022-11-23T03:35:25;8.23;;;2.75;;
15254;SDS011;7730;49.610;11.136;2022-11-23T03:37:52;7.03;;;2.40;;
15254;SDS011;7730;49.610;11.136;2022-11-23T03:40:19;9.85;;;2.75;;
15254;SDS011;7730;49.610;11.136;2022-11-23T03:42:46;6.77;;;2.53;;
15254;SDS011;7730;49.610;11.136;2022-11-23T03:45:13;9.80;;;2.63;;
15254;SDS011;7730;49.610;11.136;2022-11-23T03:47:40;6.45;;;2.47;;
15254;SDS011;7730;49.610;11.136;2022-11-23T03:50:08;8.60;;;2.42;;
15254;SDS011;7730;49.610;11.136;2022-11-23T03:52:36;7.50;;;2.50;;
15254;SDS011;7730;49.610;11.136;2022-11-23T03:55:04;8.40;;;2.47;;
15254;SDS011;7730;49.610;11.136;2022-11-23T03:57:31;7.85;;;2.50;;
15254;SDS011;7730;49.610;11.136;2022-11-23T03:59:58;7.47;;;2.65;;
15254;SDS011;7730;49.610;11.136;2022-11-23T04:02:25;7.75;;;2.50;;
15254;SDS011;7730;49.610;11.136;2022-11-23T04:04:52;8.48;;;2.70;;
15254;SDS011;7730;49.610;11.136;2022-11-23T04:07:19;8.45;;;2.70;;
15254;SDS011;7730;49.610;11.136;2022-11-23T04:09:47;8.70;;;2.63;;
15254;SDS011;7730;49.610;11.136;2022-11-23T04:12:14;8.43;;;2.78;;
15254;SDS011;7730;49.610;11.136;2022-11-23T04:14:41;6.47;;;2.50;;
15254;SDS011;7730;49.610;11.136;2022-11-23T04:17:09;7.80;;;2.53;;
15254;SDS011;7730;49.610;11.136;2022-11-23T04:19:36;9.30;;;2.70;;
15254;SDS011;7730;49.610;11.136;2022-11-23T04:22:03;7.90;;;2.80;;
15254;SDS011;7730;49.610;11.136;2022-11-23T04:24:30;8.95;;;2.50;;
15254;SDS011;7730;49.610;11.136;2022-11-23T04:26:58;7.85;;;2.50;;
15254;SDS011;7730;49.610;11.136;2022-11-23T04:29:25;6.35;;;2.33;;
15254;SDS011;7730;49.610;11.136;2022-11-23T04:31:52;6.88;;;2.40;;
15254;SDS011;7730;49.610;11.136;2022-11-23T04:34:19;12.35;;;2.92;;
15254;SDS011;7730;49.610;11.136;2022-11-23T04:36:46;6.07;;;2.43;;
15254;SDS011;7730;49.610;11.136;2022-11-23T04:39:13;7.90;;;2.50;;
15254;SDS011;7730;49.610;11.136;2022-11-23T04:41:40;7.67;;;2.47;;
15254;SDS011;7730;49.610;11.136;2022-11-23T04:44:09;8.50;;;2.53;;
15254;SDS011;7730;49.610;11.136;2022-11-23T04:46:36;7.13;;;2.53;;
15254;SDS011;7730;49.610;11.136;2022-11-23T04:49:03;7.80;;;2.40;;
15254;SDS011;7730;49.610;11.136;2022-11-23T04:51:30;8.07;;;2.53;;
15254;SDS011;7730;49.610;11.136;2022-11-23T04:53:57;7.67;;;2.40;;
15254;SDS011;7730;49.610;11.136;2022-11-23T04:56:24;5.97;;;2.40;;
15254;SDS011;7730;49.610;11.136;2022-11-23T04:58:51;8.33;;;2.40;;
15254;SDS011;7730;49.610;11.136;2022-11-23T05:01:19;6.47;;;2.38;;
15254;SDS011;7730;49.610;11.136;2022-11-23T05:03:46;7.28;;;2.60;;
15254;SDS011;7730;49.610;11.136;2022-11-23T05:06:13;9.30;;;2.63;;
15254;SDS011;7730;49.610;11.136;2022-11-23T05:08:41;8.30;;;2.60;;
15254;SDS011;7730;49.610;11.136;2022-11-23T05:11:08;10.33;;;2.60;;
15254;SDS011;7730;49.610;11.136;2022-11-23T05:13:35;8.75;;;2.70;;
15254;SDS011;7730;49.610;11.136;2022-11-23T05:16:02;10.60;;;2.80;;
15254;SDS011;7730;49.610;11.136;2022-11-23T05:18:31;8.18;;;3.00;;
15254;SDS011;7730;49.610;11.136;2022-11-23T05:20:58;10.15;;;2.92;;
15254;SDS011;7730;49.610;11.136;2022-11-23T05:23:25;8.70;;;2.50;;
15254;SDS011;7730;49.610;11.136;2022-11-23T05:25:52;10.32;;;2.80;;
15254;SDS011;7730;49.610;11.136;2022-11-23T05:28:19;7.47;;;2.70;;
15254;SDS011;7730;49.610;11.136;2022-11-23T05:30:47;8.57;;;2.60;;
15254;SDS011;7730;49.610;11.136;2022-11-23T05:33:14;8.98;;;2.50;;
15254;SDS011;7730;49.610;11.136;2022-11-23T05:35:42;9.27;;;2.50;;
15254;SDS011;7730;49.610;11.136;2022-11-23T05:38:09;8.52;;;2.58;;
15254;SDS011;7730;49.610;11.136;2022-11-23T05:40:36;8.23;;;2.58;;
15254;SDS011;7730;49.610;11.136;2022-11-23T05:43:03;8.18;;;2.60;;
15254;SDS011;7730;49.610;11.136;2022-11-23T05:45:30;10.88;;;2.53;;
15254;SDS011;7730;49.610;11.136;2022-11-23T05:47:58;7.88;;;2.58;;
15254;SDS011;7730;49.610;11.136;2022-11-23T05:50:25;9.23;;;2.65;;
15254;SDS011;7730;49.610;11.136;2022-11-23T05:52:55;6.57;;;2.15;;
15254;SDS011;7730;49.610;11.136;2022-11-23T05:55:22;10.38;;;2.55;;
15254;SDS011;7730;49.610;11.136;2022-11-23T05:57:49;8.13;;;2.45;;
15254;SDS011;7730;49.610;11.136;2022-11-23T06:00:17;8.30;;;2.80;;
15254;SDS011;7730;49.610;11.136;2022-11-23T06:02:44;7.05;;;2.33;;
15254;SDS011;7730;49.610;11.136;2022-11-23T06:05:11;9.05;;;2.50;;
15254;SDS011;7730;49.610;11.136;2022-11-23T06:07:38;6.47;;;2.40;;
15254;SDS011;7730;49.610;11.136;2022-11-23T06:10:07;8.02;;;2.47;;
15254;SDS011;7730;49.610;11.136;2022-11-23T06:12:34;6.88;;;2.60;;
15254;SDS011;7730;49.610;11.136;2022-11-23T06:15:01;7.63;;;2.60;;
15254;SDS011;7730;49.610;11.136;2022-11-23T06:17:28;8.95;;;2.60;;
15254;SDS011;7730;49.610;11.136;2022-11-23T06:19:55;8.23;;;2.67;;
15254;SDS011;7730;49.610;11.136;2022-11-23T06:22:22;9.80;;;2.95;;
15254;SDS011;7730;49.610;11.136;2022-11-23T06:24:49;9.38;;;2.50;;
15254;SDS011;7730;49.610;11.136;2022-11-23T06:27:18;9.27;;;2.72;;
15254;SDS011;7730;49.610;11.136;2022-11-23T06:29:45;8.57;;;2.53;;
15254;SDS011;7730;49.610;11.136;2022-11-23T06:32:12;7.47;;;2.40;;
15254;SDS011;7730;49.610;11.136;2022-11-23T06:34:39;10.87;;;2.83;;
15254;SDS011;7730;49.610;11.136;2022-11-23T06:37:06;11.13;;;2.70;;
15254;SDS011;7730;49.610;11.136;2022-11-23T06:39:33;9.10;;;2.60;;
15254;SDS011;7730;49.610;11.136;2022-11-23T06:42:00;8.98;;;2.50;;
15254;SDS011;7730;49.610;11.136;2022-11-23T06:44:29;8.35;;;2.30;;
15254;SDS011;7730;49.610;11.136;2022-11-23T06:46:56;11.07;;;2.60;;
15254;SDS011;7730;49.610;11.136;2022-11-23T06:49:23;7.03;;;2.30;;
15254;SDS011;7730;49.610;11.136;2022-11-23T06:51:52;8.57;;;2.60;;
15254;SDS011;7730;49.610;11.136;2022-11-23T06:54:19;9.97;;;2.80;;
15254;SDS011;7730;49.610;11.136;2022-11-23T06:56:46;7.38;;;2.50;;
15254;SDS011;7730;49.610;11.136;2022-11-23T06:59:13;8.32;;;2.70;;
15254;SDS011;7730;49.610;11.136;2022-11-23T07:01:42;9.13;;;2.50;;
15254;SDS011;7730;49.610;11.136;2022-11-23T07:04:09;7.63;;;2.70;;
15254;SDS011;7730;49.610;11.136;2022-11-23T07:06:37;7.70;;;2.45;;
15254;SDS011;7730;49.610;11.136;2022-11-23T07:09:05;7.50;;;2.45;;
15254;SDS011;7730;49.610;11.136;2022-11-23T07:11:33;7.85;;;2.60;;
15254;SDS011;7730;49.610;11.136;2022-11-23T07:14:00;10.45;;;2.80;;
15254;SDS011;7730;49.610;11.136;2022-11-23T07:16:27;8.90;;;3.03;;
15254;SDS011;7730;49.610;11.136;2022-11-23T07:18:56;5.30;;;2.40;;
15254;SDS011;7730;49.610;11.136;2022-11-23T07:21:23;9.87;;;2.67;;
15254;SDS011;7730;49.610;11.136;2022-11-23T07:23:50;8.57;;;2.55;;
15254;SDS011;7730;49.610;11.136;2022-11-23T07:26:17;7.70;;;2.60;;
15254;SDS011;7730;49.610;11.136;2022-11-23T07:28:44;9.52;;;2.80;;
15254;SDS011;7730;49.610;11.136;2022-11-23T07:31:11;9.47;;;2.70;;
15254;SDS011;7730;49.610;11.136;2022-11-23T07:33:41;9.57;;;2.80;;
15254;SDS011;7730;49.610;11.136;2022-11-23T07:36:10;9.90;;;2.90;;
15254;SDS011;7730;49.610;11.136;2022-11-23T07:38:37;9.60;;;2.88;;
15254;SDS011;7730;49.610;11.136;2022-11-23T07:41:04;8.48;;;2.78;;
15254;SDS011;7730;49.610;11.136;2022-11-23T07:43:31;12.10;;;2.65;;
15254;SDS011;7730;49.610;11.136;2022-11-23T07:45:58;9.68;;;2.75;;
15254;SDS011;7730;49.610;11.136;2022-11-23T07:48:25;9.68;;;2.80;;
15254;SDS011;7730;49.610;11.136;2022-11-23T07:50:53;6.93;;;2.70;;
15254;SDS011;7730;49.610;11.136;2022-11-23T07:53:21;7.90;;;2.60;;
15254;SDS011;7730;49.610;11.136;2022-11-23T07:55:48;7.87;;;2.53;;
15254;SDS011;7730;49.610;11.136;2022-11-23T07:58:15;8.18;;;2.60;;
15254;SDS011;7730;49.610;11.136;2022-11-23T08:00:42;8.77;;;2.65;;
15254;SDS011;7730;49.610;11.136;2022-11-23T08:03:10;9.43;;;2.63;;
15254;SDS011;7730;49.610;11.136;2022-11-23T08:05:39;8.27;;;2.75;;
15254;SDS011;7730;49.610;11.136;2022-11-23T08:08:06;9.65;;;2.88;;
15254;SDS011;7730;49.610;11.136;2022-11-23T08:10:34;6.43;;;2.70;;
15254;SDS011;7730;49.610;11.136;2022-11-23T08:13:02;8.93;;;2.90;;
15254;SDS011;7730;49.610;11.136;2022-11-23T08:15:30;10.50;;;3.35;;
15254;SDS011;7730;49.610;11.136;2022-11-23T08:17:58;9.90;;;3.03;;
15254;SDS011;7730;49.610;11.136;2022-11-23T08:20:25;9.35;;;3.05;;
15254;SDS011;7730;49.610;11.136;2022-11-23T08:22:53;8.17;;;2.70;;
15254;SDS011;7730;49.610;11.136;2022-11-23T08:25:20;11.05;;;2.83;;
15254;SDS011;7730;49.610;11.136;2022-11-23T08:27:52;8.85;;;2.70;;
15254;SDS011;7730;49.610;11.136;2022-11-23T08:30:19;7.65;;;2.90;;
15254;SDS011;7730;49.610;11.136;2022-11-23T08:32:46;7.63;;;2.58;;
15254;SDS011;7730;49.610;11.136;2022-11-23T08:35:13;8.05;;;2.90;;
15254;SDS011;7730;49.610;11.136;2022-11-23T08:37:40;8.52;;;2.88;;
15254;SDS011;7730;49.610;11.136;2022-11-23T08:40:08;6.53;;;2.70;;
15254;SDS011;7730;49.610;11.136;2022-11-23T08:42:35;7.57;;;2.70;;
15254;SDS011;7730;49.610;11.136;2022-11-23T08:45:04;9.98;;;3.10;;
15254;SDS011;7730;49.610;11.136;2022-11-23T08:47:32;10.38;;;2.92;;
15254;SDS011;7730;49.610;11.136;2022-11-23T08:49:59;9.55;;;2.90;;
15254;SDS011;7730;49.610;11.136;2022-11-23T08:52:26;8.00;;;2.90;;
15254;SDS011;7730;49.610;11.136;2022-11-23T08:54:53;9.90;;;2.80;;
15254;SDS011;7730;49.610;11.136;2022-11-23T08:57:20;8.52;;;2.88;;
15254;SDS011;7730;49.610;11.136;2022-11-23T08:59:47;7.60;;;2.80;;
15254;SDS011;7730;49.610;11.136;2022-11-23T09:02:16;10.80;;;3.15;;
15254;SDS011;7730;49.610;11.136;2022-11-23T09:04:43;8.45;;;3.05;;
15254;SDS011;7730;49.610;11.136;2022-11-23T09:07:10;10.02;;;2.70;;
15254;SDS011;7730;49.610;11.136;2022-11-23T09:09:37;6.57;;;2.80;;
15254;SDS011;7730;49.610;11.136;2022-11-23T09:12:04;8.88;;;2.90;;
15254;SDS011;7730;49.610;11.136;2022-11-23T09:14:31;10.07;;;3.10;;
15254;SDS011;7730;49.610;11.136;2022-11-23T09:16:59;7.78;;;2.90;;
15254;SDS011;7730;49.610;11.136;2022-11-23T09:19:28;7.85;;;2.80;;
15254;SDS011;7730;49.610;11.136;2022-11-23T09:21:55;8.80;;;2.70;;
15254;SDS011;7730;49.610;11.136;2022-11-23T09:24:23;8.90;;;3.20;;
15254;SDS011;7730;49.610;11.136;2022-11-23T09:26:51;7.88;;;2.63;;
15254;SDS011;7730;49.610;11.136;2022-11-23T09:29:19;7.50;;;2.85;;
15254;SDS011;7730;49.610;11.136;2022-11-23T09:31:46;9.65;;;3.17;;
15254;SDS011;7730;49.610;11.136;2022-11-23T09:34:13;8.48;;;3.08;;
15254;SDS011;7730;49.610;11.136;2022-11-23T09:36:41;7.90;;;3.10;;
15254;SDS011;7730;49.610;11.136;2022-11-23T09:39:09;8.05;;;2.78;;
15254;SDS011;7730;49.610;11.136;2022-11-23T09:41:42;9.82;;;3.00;;
15254;SDS011;7730;49.610;11.136;2022-11-23T09:44:16;10.23;;;2.80;;
15254;SDS011;7730;49.610;11.136;2022-11-23T09:46:47;7.72;;;2.80;;
15254;SDS011;7730;49.610;11.136;2022-11-23T09:49:20;10.05;;;3.08;;
15254;SDS011;7730;49.610;11.136;2022-11-23T09:51:49;6.75;;;2.70;;
15254;SDS011;7730;49.610;11.136;2022-11-23T09:54:22;6.93;;;2.65;;
15254;SDS011;7730;49.610;11.136;2022-11-23T09:56:51;9.75;;;3.50;;
15254;SDS011;7730;49.610;11.136;2022-11-23T09:59:22;7.45;;;2.72;;
15254;SDS011;7730;49.610;11.136;2022-11-23T10:01:51;7.47;;;2.65;;
15254;SDS011;7730;49.610;11.136;2022-11-23T10:04:18;9.20;;;3.10;;
15254;SDS011;7730;49.610;11.136;2022-11-23T10:06:47;9.25;;;2.80;;
15254;SDS011;7730;49.610;11.136;2022-11-23T10:09:21;7.40;;;2.80;;
15254;SDS011;7730;49.610;11.136;2022-11-23T10:11:58;8.23;;;2.90;;
15254;SDS011;7730;49.610;11.136;2022-11-23T10:14:30;10.57;;;3.15;;
15254;SDS011;7730;49.610;11.136;2022-11-23T10:17:01;8.88;;;2.60;;
15254;SDS011;7730;49.610;11.136;2022-11-23T10:19:33;9.35;;;2.70;;
15254;SDS011;7730;49.610;11.136;2022-11-23T10:22:08;10.18;;;2.90;;
15254;SDS011;7730;49.610;11.136;2022-11-23T10:24:38;7.40;;;2.20;;
15254;SDS011;7730;49.610;11.136;2022-11-23T10:27:08;9.65;;;2.95;;
15254;SDS011;7730;49.610;11.136;2022-11-23T10:29:38;7.03;;;2.67;;
15254;SDS011;7730;49.610;11.136;2022-11-23T10:32:06;8.13;;;2.80;;
15254;SDS011;7730;49.610;11.136;2022-11-23T10:34:45;8.65;;;2.72;;
15254;SDS011;7730;49.610;11.136;2022-11-23T10:37:12;7.78;;;3.00;;
15254;SDS011;7730;49.610;11.136;2022-11-23T10:39:41;10.82;;;3.08;;
15254;SDS011;7730;49.610;11.136;2022-11-23T10:42:12;9.73;;;3.38;;
15254;SDS011;7730;49.610;11.136;2022-11-23T10:44:40;8.02;;;2.97;;
15254;SDS011;7730;49.610;11.136;2022-11-23T10:47:10;11.75;;;3.20;;
15254;SDS011;7730;49.610;11.136;2022-11-23T10:49:37;8.27;;;2.90;;
15254;SDS011;7730;49.610;11.136;2022-11-23T10:52:05;6.68;;;2.55;;
15254;SDS011;7730;49.610;11.136;2022-11-23T10:54:33;11.57;;;3.20;;
15254;SDS011;7730;49.610;11.136;2022-11-23T10:57:02;8.25;;;2.60;;
15254;SDS011;7730;49.610;11.136;2022-11-23T10:59:34;8.82;;;2.70;;
15254;SDS011;7730;49.610;11.136;2022-11-23T11:02:08;10.32;;;2.95;;
15254;SDS011;7730;49.610;11.136;2022-11-23T11:04:36;8.55;;;2.53;;
15254;SDS011;7730;49.610;11.136;2022-11-23T11:07:10;7.70;;;2.80;;
15254;SDS011;7730;49.610;11.136;2022-11-23T11:09:46;7.10;;;2.50;;
15254;SDS011;7730;49.610;11.136;2022-11-23T11:12:16;11.10;;;2.80;;
15254;SDS011;7730;49.610;11.136;2022-11-23T11:14:53;6.30;;;2.45;;
15254;SDS011;7730;49.610;11.136;2022-11-23T11:17:24;8.95;;;2.72;;
15254;SDS011;7730;49.610;11.136;2022-11-23T11:19:51;9.40;;;2.80;;
15254;SDS011;7730;49.610;11.136;2022-11-23T11:22:26;8.80;;;2.50;;
15254;SDS011;7730;49.610;11.136;2022-11-23T11:24:55;7.60;;;2.40;;
15254;SDS011;7730;49.610;11.136;2022-11-23T11:27:23;9.07;;;2.80;;
15254;SDS011;7730;49.610;11.136;2022-11-23T11:29:53;10.52;;;2.80;;
15254;SDS011;7730;49.610;11.136;2022-11-23T11:32:21;9.07;;;2.50;;
15254;SDS011;7730;49.610;11.136;2022-11-23T11:34:52;8.93;;;2.88;;
15254;SDS011;7730;49.610;11.136;2022-11-23T11:37:22;7.00;;;2.05;;
15254;SDS011;7730;49.610;11.136;2022-11-23T11:39:53;5.78;;;2.15;;
15254;SDS011;7730;49.610;11.136;2022-11-23T11:42:22;8.07;;;2.33;;
15254;SDS011;7730;49.610;11.136;2022-11-23T11:44:51;8.23;;;2.88;;
15254;SDS011;7730;49.610;11.136;2022-11-23T11:47:23;10.13;;;2.75;;
15254;SDS011;7730;49.610;11.136;2022-11-23T11:49:51;13.25;;;2.97;;
15254;SDS011;7730;49.610;11.136;2022-11-23T11:52:21;10.70;;;2.58;;
15254;SDS011;7730;49.610;11.136;2022-11-23T11:54:51;12.45;;;2.47;;
15254;SDS011;7730;49.610;11.136;2022-11-23T11:57:20;9.38;;;2.60;;
15254;SDS011;7730;49.610;11.136;2022-11-23T11:59:48;13.55;;;3.17;;
15254;SDS011;7730;49.610;11.136;2022-11-23T12:02:23;11.93;;;2.80;;
15254;SDS011;7730;49.610;11.136;2022-11-23T12:04:55;9.82;;;2.10;;
15254;SDS011;7730;49.610;11.136;2022-11-23T12:07:28;11.82;;;2.63;;
15254;SDS011;7730;49.610;11.136;2022-11-23T12:09:56;13.18;;;3.13;;
15254;SDS011;7730;49.610;11.136;2022-11-23T12:12:26;17.00;;;3.20;;
15254;SDS011;7730;49.610;11.136;2022-11-23T12:14:53;12.90;;;2.90;;
15254;SDS011;7730;49.610;11.136;2022-11-23T12:17:30;7.28;;;2.30;;
15254;SDS011;7730;49.610;11.136;2022-11-23T12:20:01;8.93;;;2.42;;
15254;SDS011;7730;49.610;11.136;2022-11-23T12:22:33;10.00;;;2.30;;
15254;SDS011;7730;49.610;11.136;2022-11-23T12:25:08;9.60;;;2.60;;
15254;SDS011;7730;49.610;11.136;2022-11-23T12:27:40;9.38;;;2.40;;
15254;SDS011;7730;49.610;11.136;2022-11-23T12:30:12;9.18;;;2.60;;
15254;SDS011;7730;49.610;11.136;2022-11-23T12:32:46;7.18;;;2.30;;
15254;SDS011;7730;49.610;11.136;2022-11-23T12:35:19;6.95;;;2.38;;
15254;SDS011;7730;49.610;11.136;2022-11-23T12:37:53;7.85;;;2.33;;
15254;SDS011;7730;49.610;11.136;2022-11-23T12:40:33;10.00;;;2.85;;
15254;SDS011;7730;49.610;11.136;2022-11-23T12:43:05;9.27;;;2.70;;
15254;SDS011;7730;49.610;11.136;2022-11-23T12:45:43;9.50;;;2.63;;
15254;SDS011;7730;49.610;11.136;2022-11-23T12:48:18;10.38;;;2.72;;
15254;SDS011;7730;49.610;11.136;2022-11-23T12:50:49;8.77;;;3.00;;
15254;SDS011;7730;49.610;11.136;2022-11-23T12:53:25;9.02;;;2.60;;
15254;SDS011;7730;49.610;11.136;2022-11-23T12:55:55;11.80;;;2.50;;
15254;SDS011;7730;49.610;11.136;2022-11-23T12:58:26;10.95;;;2.58;;
15254;SDS011;7730;49.610;11.136;2022-11-23T13:00:53;12.63;;;2.50;;
15254;SDS011;7730;49.610;11.136;2022-11-23T13:03:31;8.40;;;2.47;;
15254;SDS011;7730;49.610;11.136;2022-11-23T13:06:11;7.00;;;1.98;;
15254;SDS011;7730;49.610;11.136;2022-11-23T13:11:28;8.30;;;2.03;;
15254;SDS011;7730;49.610;11.136;2022-11-23T13:14:02;5.27;;;1.80;;
15254;SDS011;7730;49.610;11.136;2022-11-23T13:16:47;10.35;;;2.28;;
15254;SDS011;7730;49.610;11.136;2022-11-23T13:19:25;4.57;;;1.73;;
15254;SDS011;7730;49.610;11.136;2022-11-23T13:21:55;6.10;;;2.10;;
15254;SDS011;7730;49.610;11.136;2022-11-23T13:24:26;7.80;;;2.30;;
15254;SDS011;7730;49.610;11.136;2022-11-23T13:29:45;7.00;;;2.20;;
15254;SDS011;7730;49.610;11.136;2022-11-23T13:35:00;8.68;;;2.10;;
15254;SDS011;7730;49.610;11.136;2022-11-23T13:37:27;9.50;;;2.45;;
15254;SDS011;7730;49.610;11.136;2022-11-23T13:40:01;7.32;;;1.80;;
15254;SDS011;7730;49.610;11.136;2022-11-23T13:42:29;12.40;;;2.30;;
15254;SDS011;7730;49.610;11.136;2022-11-23T13:45:12;7.10;;;1.85;;
15254;SDS011;7730;49.610;11.136;2022-11-23T13:47:39;8.90;;;2.10;;
15254;SDS011;7730;49.610;11.136;2022-11-23T13:50:08;5.90;;;1.80;;
15254;SDS011;7730;49.610;11.136;2022-11-23T13:52:46;7.57;;;2.38;;
15254;SDS011;7730;49.610;11.136;2022-11-23T13:55:18;7.07;;;2.30;;
15254;SDS011;7730;49.610;11.136;2022-11-23T13:58:35;5.72;;;1.60;;
15254;SDS011;7730;49.610;11.136;2022-11-23T14:00:43;7.60;;;2.15;;
15254;SDS011;7730;49.610;11.136;2022-11-23T14:05:57;6.25;;;2.00;;
15254;SDS011;7730;49.610;11.136;2022-11-23T14:08:25;7.70;;;2.00;;
15254;SDS011;7730;49.610;11.136;2022-11-23T14:10:52;8.38;;;2.10;;
15254;SDS011;7730;49.610;11.136;2022-11-23T14:13:21;5.32;;;1.73;;
15254;SDS011;7730;49.610;11.136;2022-11-23T14:15:52;6.57;;;2.20;;
15254;SDS011;7730;49.610;11.136;2022-11-23T14:21:08;6.28;;;2.00;;
15254;SDS011;7730;49.610;11.136;2022-11-23T14:26:22;8.43;;;2.13;;
15254;SDS011;7730;49.610;11.136;2022-11-23T14:28:58;7.68;;;2.40;;
15254;SDS011;7730;49.610;11.136;2022-11-23T14:31:29;7.07;;;1.90;;
15254;SDS011;7730;49.610;11.136;2022-11-23T14:34:03;7.53;;;2.00;;
15254;SDS011;7730;49.610;11.136;2022-11-23T14:36:34;6.45;;;2.03;;
15254;SDS011;7730;49.610;11.136;2022-11-23T14:41:49;6.90;;;2.50;;
15254;SDS011;7730;49.610;11.136;2022-11-23T14:44:18;9.23;;;2.53;;
15254;SDS011;7730;49.610;11.136;2022-11-23T14:47:00;9.68;;;2.78;;
15254;SDS011;7730;49.610;11.136;2022-11-23T14:49:27;10.13;;;2.70;;
15254;SDS011;7730;49.610;11.136;2022-11-23T14:51:55;9.02;;;2.75;;
15254;SDS011;7730;49.610;11.136;2022-11-23T14:54:23;7.30;;;2.50;;
15254;SDS011;7730;49.610;11.136;2022-11-23T14:56:50;7.82;;;2.35;;
15254;SDS011;7730;49.610;11.136;2022-11-23T14:59:19;8.30;;;2.63;;
15254;SDS011;7730;49.610;11.136;2022-11-23T15:01:50;9.23;;;2.65;;
15254;SDS011;7730;49.610;11.136;2022-11-23T15:04:20;9.13;;;2.72;;
15254;SDS011;7730;49.610;11.136;2022-11-23T15:06:49;9.82;;;2.80;;
15254;SDS011;7730;49.610;11.136;2022-11-23T15:09:21;8.10;;;2.60;;
15254;SDS011;7730;49.610;11.136;2022-11-23T15:11:49;9.48;;;3.00;;
15254;SDS011;7730;49.610;11.136;2022-11-23T15:14:17;6.85;;;2.72;;